Airfield :
LOGIN :

Register | Disclaimer

   EN    FR    IT 

 










Legend :    VFR   Marginal VFR   IFR   Intensive IFR   Very Intensive IFR
Visi :
Ceiling :
>= 8 km
>= 3000ft
5 to 8 km
1000 to 3000 ft
1500m to 5 km
500 to 1000 ft
800 to 1500m
200 to 500 ft
< 800m
< 200 ft
Symbols :   Thunderstorms  Fog  Heavy snow  Heavy precipitations  Wind > 20 kt
SIGMETs :     Misc.  Thunderstorms  Icing  Turbulence  Mountain Waves  Volcanic Ashes






- Airport Elevation : 14 ft
- IATA code : BRE


EDDW - Bremen Neuenland

CURRENT METAR :
  • 181850Z 24011KT 9999 FEW015 BKN018 05/03 Q1015 NOSIG

EXPIRED METARs :
  • 181820Z 25011KT 9999 -RA BKN016 BKN035 05/03 Q1015 NOSIG
  • 181750Z 24011KT 9999 SCT014 BKN016 05/03 Q1015 NOSIG
  • 181720Z 24012KT 9000 BKN013 BKN016 05/03 Q1015 TEMPO SCT012
  • 181650Z 25011KT 8000 -RA BKN012 BKN016 05/04 Q1015 NOSIG
  • 181620Z 24011KT 6000 -RA BKN014 BKN016 05/04 Q1015 NOSIG
  • 181550Z 25012KT 6000 -RA BKN012 BKN015 05/04 Q1015 NOSIG

TAF TAF EDDW
Valid from the 18 at 18:00 until the 19 at 18:00 UTC


181700Z 1818/1918 22012KT 9999 BKN013
TEMPO 1818/1824 SCT013 BKN020
PROB30
TEMPO 1818/1906 3500 -RADZ BR BKN007
BECMG 1906/1908 BKN007
TEMPO 1906/1913 21015G25KT
PROB40
TEMPO 1906/1918 3000 -RADZ BKN004
PROB30
TEMPO 1916/1918 23015G25KT



MET'MAP, your aeronautical weather chart ! - Copyright ORBIFLY December 2007 - Disclaimer

ORBIFLY MET'MAP TEAM :

Programming & Development : Alexandra Zaïnal
Concept & original design : Baudouin d'Aumeries
Assistance for programming : Marc-Olivier Méhu
Technical & hardware support : Manuel Goepfert

Contact : metmap@orbifly.com




SOURCES & CREDITS :

   NOAA